Booker, Arkansas
Current Conditions -  °F | °C
As of 2:53 PM on Sunday 21 Dec 2014 (Local Time) from KLIT Reporting Station
Broken Clouds Broken Clouds  
Wind Chill: 54°   Ceiling: 9000
Heat Index: 54°   Visibility: 10mi
Dew Point: 35°   Wind: 10mph
Humidity: 49%   Direction: 140°SE
Pressure: 30.01"   Gusts: NA
Location:  34.757°N, 92.1411°W
Report Text: KLIT 212053Z 14009KT 10SM BKN090 BKN250 12/02 A3001 RMK AO2 SLP165 T01220017 56034
Loading
Personal Weather Stations






























Interactive Weather Map New forecast layout! Learn more

10-Day Weather Forecast

Advertisements
Track Severe Weather on mobile